Salisbury, Canada
Current Conditions -  °F | °C
As of 12:00 PM on Tuesday 27 Jan 2015 (Local Time) from CYQM Reporting Station
Heavy Snow Heavy Snow  
Wind Chill: -4°   Ceiling: 100
Heat Index: 18°   Visibility: 0.12mi
Dew Point: 14°   Wind: 38mph
Humidity: 86%   Direction: 30°NNE
Pressure: 29.94"   Gusts: 47mph
Location:  46.03°N, 65.05°W
Report Text: CYQM 271600Z 03033G41KT 1/8SM R06/1400FT/N R29/1400FT/N +SN +BLSN VV001 M08/M10 A2994 RMK BLSN8 /S17/ PRESFR SLP143
Loading
Personal Weather Stations






























Interactive Weather Map New forecast layout! Learn more

10-Day Weather Forecast

Advertisements
Track Severe Weather on mobile